Flight Track Log - Related Links

Times and Time Zones

All times are in EDT time to prevent confusion due to time zone crossing. See the GTX837 flight status page for this flight to view local times or setup timezone preferences in your user account.

Time Position Orientation Groundspeed Altitude Reporting Facility
EDT Latitude Longitude Course Direction KTS MPH feet Rate Location/Type
Wed 06:43:21 PM 30.3408 -97.3900 110° East 148 170 3,400  Level Houston Center
Wed 06:44:23 PM 30.3203 -97.3322 112° Southeast 158 182 3,400  Level Houston Center
Wed 06:45:25 PM 30.3053 -97.2817 109° East 161 185 3,400  Level Houston Center
Wed 06:46:27 PM 30.2897 -97.2319 110° East 162 186 3,400 48 Level Houston Center
Wed 06:47:29 PM 30.2744 -97.1817 109° East 163 188 3,500 48 Climbing Houston Center
Wed 06:48:00 PM 30.2896 -97.2286 110° East  Level Estimated
Wed 06:48:31 PM 30.2592 -97.1306 109° East 165 190 3,500  Level Houston Center
Wed 06:49:33 PM 30.2411 -97.0689 109° East 165 190 3,400 -48 Descending Houston Center
Wed 06:50:36 PM 30.2336 -97.0169 99° East 179 206 3,400  Level Houston Center
Wed 06:51:38 PM 30.2169 -96.9694 112° Southeast 165 190 3,400  Level Houston Center
Wed 06:52:40 PM 30.2008 -96.9206 111° Southeast 165 190 3,400 48 Level Houston Center
Wed 06:53:42 PM 30.1803 -96.8653 113° Southeast 165 190 3,500  Climbing Houston Center
Wed 06:54:44 PM 30.1656 -96.8214 111° Southeast 165 190 3,400 -49 Descending Houston Center
Wed 06:55:45 PM 30.1469 -96.7625 110° East 170 196 3,400 51 Level Houston Center
Wed 06:56:41 PM 30.1322 -96.7111 108° East 170 196 3,500  Climbing Houston Center
Wed 06:57:47 PM 30.1131 -96.6553 112° Southeast 168 193 3,400 -50 Descending Houston Center
Wed 06:58:42 PM 30.0989 -96.6108 110° East 166 191 3,400  Level Houston Center
Wed 06:58:53 PM 30.0986 -96.6100 111° Southeast 167 192 3,400 82 Level Houston Center
Wed 06:59:55 PM 30.0789 -96.5497 111° Southeast 167 192 3,500  Climbing Houston Center
Wed 07:01:52 PM 30.0461 -96.4528 112° Southeast 169 194 3,400  Descending Houston Center
Wed 07:02:53 PM 30.0292 -96.4017 111° Southeast 168 193 3,500 49 Climbing Houston Center
Wed 07:03:54 PM 30.0144 -96.3503 108° East 166 191 3,500 -49 Level Houston Center
Wed 07:04:55 PM 29.9994 -96.2989 109° East 170 196 3,400 -83 Descending Houston Center
Wed 07:05:06 PM 30.0006 -96.2986 12° North 167 192 3,400  Level Houston Center
Wed 07:06:08 PM 29.9614 -96.2525 134° Southeast 168 193 3,400 54 Level Houston Center
Wed 07:06:57 PM 29.9342 -96.2194 134° Southeast 166 191 3,500 97 Climbing Houston Center
Wed 07:07:10 PM 29.9297 -96.2133 130° Southeast 168 193 3,500  Level Houston Center
Wed 07:08:12 PM 29.8969 -96.1744 134° Southeast 168 193 3,500  Level Houston Center
Wed 07:08:59 PM 29.8686 -96.1422 135° Southeast 167 192 3,500  Level Houston Center
Wed 07:09:14 PM 29.8653 -96.1361 122° Southeast 167 192 3,500  Level Houston Center
Wed 07:10:00 PM 29.8358 -96.1028 136° Southeast 165 190 3,500 -97 Level Houston Center
Wed 07:10:16 PM 29.8333 -96.0967 115° Southeast 167 192 3,400 -97 Descending Houston Center
Wed 07:11:02 PM 29.8033 -96.0656 138° Southeast 167 192 3,400  Level Houston Center
Wed 07:11:18 PM 29.7994 -96.0589 124° Southeast 167 192 3,400  Level Houston Center
Wed 07:12:03 PM 29.7683 -96.0239 136° Southeast 170 196 3,400  Level Houston Center
Wed 07:12:21 PM 29.7600 -96.0128 131° Southeast 168 193 3,400  Level Houston Center
Wed 07:13:04 PM 29.7375 -95.9839 132° Southeast 168 193 3,400  Level Houston Center
Wed 07:13:23 PM 29.7319 -95.9769 133° Southeast 168 193 3,400  Level Houston Center
Wed 07:14:05 PM 29.7067 -95.9419 130° Southeast 169 194 3,400  Level Houston Center
Wed 07:14:25 PM 29.6939 -95.9286 138° Southeast 168 193 3,400 98 Level Houston Center
Wed 07:15:06 PM 29.6739 -95.9047 134° Southeast 159 183 3,500  Climbing Houston Center
Wed 07:15:27 PM 29.6617 -95.8903 134° Southeast 168 193 3,400 -98 Descending Houston Center
Wed 07:16:07 PM 29.6389 -95.8631 134° Southeast 168 193 3,400 97 Level Houston Center
Wed 07:16:29 PM 29.6314 -95.8514 126° Southeast 168 193 3,500  Climbing Houston Center
Wed 07:17:08 PM 29.6081 -95.8233 134° Southeast 167 192 3,400 -97 Descending Houston Center
Wed 07:17:31 PM 29.6014 -95.8119 124° Southeast 168 193 3,400 -109 Level Houston Center
Wed 07:18:03 PM 29.5794 -95.7858 134° Southeast 167 192 3,300 -97 Descending Houston Center
Wed 07:18:33 PM 29.5703 -95.7717 127° Southeast 168 193 3,300 -393 Level Houston Center
Wed 07:19:04 PM 29.5464 -95.7442 135° Southeast 183 211 2,900 -476 Descending Houston Center
Wed 07:19:36 PM 29.5383 -95.7292 122° Southeast 172 198 2,800  Descending Houston Center
Wed 07:20:00 PM 29.5200 -95.7064 133° Southeast 169 194 2,900 194 Climbing Houston Center
Wed 07:20:38 PM 29.5008 -95.6811 131° Southeast 172 198 3,000  Climbing Houston Center
Wed 07:21:07 PM 29.4847 -95.6625 135° Southeast 165 190 2,900  Descending Houston Center
Wed 07:21:40 PM 29.4694 -95.6425 131° Southeast 171 197 3,000  Climbing Houston Center
Wed 07:22:02 PM 29.4581 -95.6247 126° Southeast 168 193 2,900  Descending Houston Center
Wed 07:22:42 PM 29.4594 -95.5917 87° East 172 198 3,000  Climbing Houston Center
Wed 07:23:03 PM 29.4592 -95.5672 91° East 171 197 2,900  Descending Houston Center
Wed 07:23:44 PM 29.4694 -95.5386 68° East 171 197 3,000  Climbing Houston Center
Wed 07:24:04 PM 29.4800 -95.5192 58° Northeast 168 193 2,900  Descending Houston Center
Wed 07:24:46 PM 29.4969 -95.4939 52° Northeast 171 197 3,000  Climbing Houston Center
Wed 07:25:11 PM 29.5114 -95.4697 56° Northeast 169 194 2,900 -97 Descending Houston Center
Wed 07:25:48 PM 29.5283 -95.4406 56° Northeast 170 196 2,900  Level Houston Center
Wed 07:26:06 PM 29.5347 -95.4286 58° Northeast 168 193 2,900 -190 Level Houston Center
Wed 07:26:51 PM 29.5547 -95.3975 54° Northeast 169 194 2,700 -448 Descending Houston Center
Wed 07:27:13 PM 29.5642 -95.3817 56° Northeast 158 182 2,400 -774 Descending Houston Center
Wed 07:27:53 PM 29.5800 -95.3572 53° Northeast 163 188 1,900 -984 Descending Houston Center
Wed 07:28:14 PM 29.5881 -95.3453 52° Northeast 146 168 1,400 -1,065 Descending Houston Center
Wed 07:28:55 PM 29.6044 -95.3233 49° Northeast 151 174 800 -764 Descending Houston Center
Wed 07:29:09 PM 29.6128 -95.3158 38° Northeast 133 153 700 -581 Descending Houston Center
Wed 07:29:57 PM 29.6303 -95.2944 47° Northeast 139 160 200 -625 Descending Houston Center
Wed 07:31:00 PM 29.6333 -95.2667 62° Northeast  Level FlightAware Approximate
Wed 07:38:00 PM 29.6454 -95.2789 319° Northwest  Level Estimated

Login

Don't have an account? Register now (free) for customized features, flight alerts, and more!